Latest Coastal Weather Observations for Cape Otway

IDV60701

Issued at 12:35 am EDT Saturday 29 November 2014 (issued every 10 minutes, with the page automatically refreshed every 10 minutes)

About coastal observations | Map of coastal stations | Coastal observations for VIC | Marine services | Other Formats
Station Details ID: 090015 Name: CAPE OTWAY LIGHTHOUSE Lat: -38.86 Lon: 143.51 Height: 82.0 m
Data from the previous 72 hours. | See also: Recent months at Cape Otway
Date/Time
EDT
Temp

°C
Wind Pressure Rain
since 9am
mm
Weather Cloud Vis
km
Sea
Height
m
Swell
Dir
 
Speed
knots
Gust
knots
hPa Trend Height
m
Period
s
Dir
29/12:30am 12.4 E 8 13 1019.7 - 0.0 - - - - - - -
29/12:00am 12.4 E 10 13 1020.1 - 0.0 - - - - - - -
 
Date/Time
EDT
Temp

°C
Wind Pressure Rain
since 9am
mm
Weather Cloud Vis
km
Sea
Height
m
Swell
Dir
 
Speed
knots
Gust
knots
hPa Trend Height
m
Period
s
Dir
28/11:30pm 12.7 E 9 15 1020.3 - 0.0 - - - - - - -
28/11:00pm 12.6 E 10 16 1020.6 - 0.0 - - - - - - -
28/10:30pm 12.8 E 9 15 1021.0 - 0.0 - - - - - - -
28/10:00pm 12.8 E 9 16 1021.3 - 0.0 - - - - - - -
28/09:30pm 12.5 E 9 15 1021.0 - 0.0 - - - - - - -
28/09:00pm 12.8 E 11 15 1021.1 - 0.0 - - - - - - -
28/08:30pm 13.0 E 10 15 1021.1 - 0.0 - - - - - - -
28/08:00pm 13.4 ESE 13 16 1021.2 - 0.0 - - - - - - -
28/07:30pm 13.7 ESE 11 16 1021.0 - 0.0 - - - - - - -
28/07:00pm 14.1 SE 9 14 1021.0 - 0.0 - - - - - - -
28/06:30pm 14.1 SE 10 16 1020.9 - 0.0 - - - - - - -
28/06:00pm 14.8 SE 7 13 1021.0 - 0.0 - - - - - - -
28/05:30pm 14.5 ESE 11 15 1021.2 - 0.0 - - - - - - -
28/05:00pm 14.6 ESE 12 16 1021.1 - 0.0 - - - - - - -
28/04:30pm 14.7 ESE 12 15 1021.3 - 0.0 - - - - - - -
28/04:00pm 14.8 ESE 13 17 1021.5 - 0.0 - - - - - - -
28/03:30pm 15.3 ESE 12 16 1021.6 - 0.0 - - - - - - -
28/03:00pm 14.9 ESE 13 17 1021.7 F 0.0 Fine Mostly clear 20 2 2.0 9 SE
28/02:30pm 14.8 ESE 13 16 1022.2 - 0.0 - - - - - - -
28/02:00pm 14.7 ESE 11 14 1022.5 - 0.0 - - - - - - -
28/01:30pm 15.4 ESE 10 14 1023.1 - 0.0 - - - - - - -
28/01:00pm 14.9 ESE 8 12 1023.7 - 0.0 - - - - - - -
28/12:30pm 14.5 ESE 10 13 1023.9 - 0.0 - - - - - - -
28/12:00pm 14.3 ESE 9 14 1024.1 - 0.0 - - - - - - -
28/11:30am 14.5 E 9 13 1024.1 - 0.0 - - - - - - -
28/11:00am 14.4 ESE 9 13 1024.3 - 0.0 - - - - - - -
28/10:30am 13.8 ESE 7 11 1024.5 - 0.0 - - - - - - -
28/10:00am 13.5 ESE 9 14 1024.5 - 0.0 - - - - - - -
28/09:30am 13.5 ESE 8 13 1024.7 - 0.0 - - - - - - -
28/09:00am 13.6 E 8 13 1024.7 F 0.0 Fine Mostly cloudy 20 1 2.0 9 SE
28/08:30am 12.9 SE 7 11 1024.7 - 0.0 - - - - - - -
28/08:00am 12.5 ESE 10 15 1024.6 - 0.0 - - - - - - -
28/07:30am 12.3 SE 6 11 1024.6 - 0.0 - - - - - - -
28/07:00am 12.2 SE 8 13 1024.4 - 0.0 - - - - - - -
28/06:30am 12.1 SE 9 14 1024.2 - 0.0 - - - - - - -
28/06:00am 12.2 ESE 9 13 1024.0 - 0.0 - - - - - - -
28/05:30am 12.3 SW 5 10 1024.1 - 0.0 - - - - - - -
28/05:00am 12.1 SSE 6 11 1023.8 - 0.0 - - - - - - -
28/04:30am 12.0 ESE 8 12 1023.7 - 0.0 - - - - - - -
28/04:00am 11.9 S 5 9 1023.6 - 0.0 - - - - - - -
28/03:30am 12.0 SSE 5 10 1023.4 - 0.0 - - - - - - -
28/03:00am 12.0 ESE 8 12 1023.4 - 0.0 - - - - - - -
28/02:30am 11.8 E 8 13 1023.6 - 0.0 - - - - - - -
28/02:00am 12.0 SSE 6 9 1023.7 - 0.0 - - - - - - -
28/01:30am 12.1 SE 7 13 1023.9 - 0.0 - - - - - - -
28/01:00am 11.9 ESE 7 12 1024.0 - 0.0 - - - - - - -
28/12:30am 12.0 E 8 12 1024.3 - 0.0 - - - - - - -
28/12:00am 12.1 ESE 11 16 1024.5 - 0.0 - - - - - - -
 
Date/Time
EDT
Temp

°C
Wind Pressure Rain
since 9am
mm
Weather Cloud Vis
km
Sea
Height
m
Swell
Dir
 
Speed
knots
Gust
knots
hPa Trend Height
m
Period
s
Dir
27/11:30pm 12.2 ESE 9 13 1025.0 - 0.0 - - - - - - -
27/11:00pm 12.4 ESE 8 12 1025.1 - 0.0 - - - - - - -
27/10:30pm 12.2 ESE 7 11 1025.5 - 0.0 - - - - - - -
27/10:00pm 12.4 ESE 9 14 1025.4 - 0.0 - - - - - - -
27/09:30pm 12.4 SE 7 12 1025.5 - 0.0 - - - - - - -
27/09:00pm 12.5 ESE 5 13 1025.3 - 0.0 - - - - - - -
27/08:30pm 12.2 SE 9 14 1025.2 - 0.0 - - - - - - -
27/08:00pm 12.5 ESE 10 15 1025.3 - 0.0 - - - - - - -
27/07:30pm 13.0 SE 7 12 1025.4 - 0.0 - - - - - - -
27/07:00pm 12.9 ESE 8 13 1025.5 - 0.0 - - - - - - -
27/06:30pm 13.3 SE 7 13 1025.5 - 0.0 - - - - - - -
27/06:00pm 13.9 ESE 9 13 1025.5 - 0.0 - - - - - - -
27/05:30pm 14.7 SE 7 11 1025.7 - 0.0 - - - - - - -
27/05:00pm 15.1 SW 5 9 1025.8 - 0.0 - - - - - - -
27/04:30pm 15.5 SSE 6 10 1025.9 - 0.0 - - - - - - -
27/04:00pm 15.3 SE 8 13 1026.2 - 0.0 - - - - - - -
27/03:30pm 14.8 SE 8 13 1026.1 - 0.0 - - - - - - -
27/03:00pm 15.8 SSE 7 11 1026.4 F 0.0 Fine Mostly clear 20 1 2.0 9 S
27/02:30pm 16.0 S 7 11 1026.6 - 0.0 - - - - - - -
27/02:00pm 16.0 SSE 8 12 1026.7 - 0.0 - - - - - - -
27/01:30pm 15.9 SSE 8 12 1026.6 - 0.0 - - - - - - -
27/01:00pm 15.2 SE 8 12 1026.7 - 0.0 - - - - - - -
27/12:30pm 15.7 SE 7 13 1026.7 - 0.0 - - - - - - -
27/12:00pm 15.1 SSE 5 8 1027.2 - 0.0 - - - - - - -
27/11:30am 15.1 S 6 12 1027.1 - 0.0 - - - - - - -
27/11:00am 14.6 S 5 9 1027.2 - 0.0 - - - - - - -
27/10:30am 13.9 SW 4 7 1027.3 - 0.0 - - - - - - -
27/10:00am 13.8 SSW 5 10 1027.4 - 0.0 - - - - - - -
27/09:30am 13.3 SSE 5 8 1027.4 - 0.0 - - - - - - -
27/09:00am 13.1 SW 6 10 1027.3 R 0.2 Fine Mostly cloudy 20 2 2.0 9 S
27/08:30am 12.6 WSW 5 10 1026.9 - 0.2 - - - - - - -
27/08:00am 12.6 SSE 5 8 1026.7 - 0.2 - - - - - - -
27/07:30am 12.2 SSE 5 8 1026.5 - 0.2 - - - - - - -
27/07:00am 12.0 SW 5 9 1026.1 - 0.2 - - - - - - -
27/06:30am 11.8 S 6 10 1026.0 - 0.2 - - - - - - -
27/06:00am 11.9 S 5 12 1025.8 - 0.2 - - - - - - -
27/05:30am 11.8 SSE 7 12 1025.5 - 0.2 - - - - - - -
27/05:00am 11.9 SSW 6 10 1025.1 - 0.2 - - - - - - -
27/04:30am 12.0 SW 5 7 1024.9 - 0.2 - - - - - - -
27/04:00am 12.1 W 4 7 1024.7 - 0.2 - - - - - - -
27/03:30am 12.1 SSE 5 9 1024.7 - 0.2 - - - - - - -
27/03:00am 11.9 SSE 7 13 1024.8 - 0.2 - - - - - - -
27/02:30am 11.7 S 5 8 1024.8 - 0.2 - - - - - - -
27/02:00am 12.3 WSW 5 8 1024.8 - 0.2 - - - - - - -
27/01:30am 12.4 SW 8 12 1025.0 - 0.2 - - - - - - -
27/01:00am 12.6 SW 6 9 1025.1 - 0.2 - - - - - - -
27/12:30am 12.5 S 4 8 1025.2 - 0.2 - - - - - - -
27/12:00am 12.6 SW 6 9 1025.4 - 0.2 - - - - - - -
 
Date/Time
EDT
Temp

°C
Wind Pressure Rain
since 9am
mm
Weather Cloud Vis
km
Sea
Height
m
Swell
Dir
 
Speed
knots
Gust
knots
hPa Trend Height
m
Period
s
Dir
26/11:30pm 12.7 SSW 5 11 1025.2 - 0.2 - - - - - - -
26/11:00pm 12.7 SW 9 13 1025.2 - 0.2 - - - - - - -
26/10:30pm 13.0 SSW 9 18 1025.1 - 0.2 - - - - - - -
26/10:00pm 12.8 SSW 7 11 1025.1 - 0.2 - - - - - - -
26/09:30pm 12.8 SW 5 9 1024.8 - 0.2 - - - - - - -
26/09:00pm 12.9 SSW 10 13 1024.5 - 0.2 - - - - - - -
26/08:30pm 13.0 SSW 8 15 1024.4 - 0.2 - - - - - - -
26/08:00pm 13.1 SSW 11 17 1024.3 - 0.2 - - - - - - -
26/07:30pm 13.2 SSW 11 15 1024.1 - 0.2 - - - - - - -
26/07:00pm 13.5 SSW 12 16 1023.8 - 0.2 - - - - - - -
26/06:30pm 13.7 SSW 9 15 1023.5 - 0.2 - - - - - - -
26/06:00pm 13.8 SSW 11 14 1023.2 - 0.2 - - - - - - -
26/05:30pm 14.4 SW 10 13 1023.2 - 0.2 - - - - - - -
26/05:00pm 15.6 SW 11 15 1023.1 - 0.2 - - - - - - -
26/04:30pm 15.2 SW 11 16 1023.1 - 0.2 - - - - - - -
26/04:00pm 15.5 SW 12 16 1023.0 - 0.2 - - - - - - -
26/03:30pm 15.6 SW 13 16 1022.9 - 0.2 - - - - - - -
26/03:00pm 15.5 SW 12 18 1022.8 R 0.2 Fine Mostly cloudy 20 2 2.0 8 SW
26/02:30pm 15.5 SSW 10 13 1022.8 - 0.2 - - - - - - -
26/02:00pm 15.1 SSW 10 14 1022.7 - 0.2 - - - - - - -
26/01:30pm 14.5 SSW 12 15 1022.6 - 0.2 - - - - - - -
26/01:00pm 14.6 SSW 11 15 1022.6 - 0.2 - - - - - - -
26/12:30pm 14.5 SSW 10 14 1022.4 - 0.2 - - - - - - -
26/12:00pm 13.7 SSW 13 18 1022.2 - 0.2 - - - - - - -
26/11:30am 13.5 SSW 13 17 1022.0 - 0.2 - - - - - - -
26/11:00am 13.8 SW 17 22 1021.8 - 0.2 - - - - - - -
26/10:30am 14.1 W 15 20 1021.5 - 0.2 - - - - - - -
26/10:00am 13.8 W 15 22 1021.3 - 0.2 - - - - - - -
26/09:30am 13.7 W 16 20 1021.2 - 0.2 - - - - - - -
26/09:00am 14.8 W 17 22 1021.0 R 0.0 Distant precip. Mostly cloudy 20 2 2.0 9 S
26/08:30am 14.5 W 16 22 1020.7 - 0.0 - - - - - - -
26/08:00am 14.1 W 16 21 1020.6 - 0.0 - - - - - - -
26/07:30am 13.8 W 17 23 1020.3 - 0.0 - - - - - - -
26/07:00am 13.9 W 16 22 1020.1 - 0.0 - - - - - - -
26/06:30am 13.6 W 15 21 1019.9 - 0.0 - - - - - - -
26/06:00am 13.5 W 14 21 1019.5 - 0.0 - - - - - - -
26/05:30am 12.7 W 12 17 1019.4 - 0.0 - - - - - - -
26/05:00am 13.9 W 15 20 1019.2 - 0.0 - - - - - - -
26/04:30am 13.5 W 16 22 1019.1 - 0.0 - - - - - - -
26/04:00am 13.6 W 17 23 1019.2 - 0.0 - - - - - - -
26/03:30am 13.6 W 17 22 1019.1 - 0.0 - - - - - - -
26/03:00am 13.4 W 15 22 1019.3 - 0.0 - - - - - - -
26/02:48am 13.4 W 15 25 1019.3 - 0.0 - - - - - - -
26/02:47am 13.4 W 15 25 1019.3 - 0.0 - - - - - - -
26/02:30am 13.3 W 16 25 1019.5 - 0.0 - - - - - - -
26/02:00am 13.2 W 17 22 1019.6 - 0.0 - - - - - - -
26/01:30am 13.0 W 17 22 1019.9 - 0.0 - - - - - - -
26/01:00am 12.9 W 18 25 1020.1 - 0.0 - - - - - - -

Other Formats:

Comma delimited format used in spreadsheet applications
http://www.bom.gov.au/fwo/IDV60701/IDV60701.94842.axf

JavaScript Object Notation format (JSON) in row-major order
http://www.bom.gov.au/fwo/IDV60701/IDV60701.94842.json